Terminal Aerodrome Forecast
Issued by NWS

Home | Current Version | Previous Version | Text Only | Print | Product List | Glossary On
Versions: 1 2 3 4 5 6 7 8 9 10 11 12 13 14
614
FTUS44 KEPZ 282342
TAFTCS
TAF
KTCS 282342Z 2900/2924 26025G35KT P6SM VCTS SCT060CB BKN100 BKN250
     FM290900 30018G39KT P6SM SCT060 BKN100=

USA.gov is the U.S. government's official web portal to all federal, state and local government web resources and services.